createdAt,value
2023-08-01T00:01:19.018Z,2.95
2023-08-01T00:04:21.903Z,2.90
2023-08-01T00:07:24.508Z,2.70
2023-08-01T00:10:27.153Z,2.72
2023-08-01T00:13:29.480Z,2.95
2023-08-01T00:16:33.907Z,2.75
2023-08-01T00:19:36.004Z,3.03
2023-08-01T00:22:38.946Z,2.70
2023-08-01T00:25:40.957Z,2.63
2023-08-01T00:28:44.815Z,2.83
2023-08-01T00:31:46.885Z,3.00
2023-08-01T00:34:53.762Z,3.00
2023-08-01T00:37:56.089Z,2.80
2023-08-01T00:40:58.477Z,2.90
2023-08-01T00:44:00.512Z,2.45
2023-08-01T00:47:03.050Z,2.50
2023-08-01T00:50:05.475Z,2.88
2023-08-01T00:53:08.139Z,2.50
2023-08-01T00:56:10.512Z,2.70
2023-08-01T00:59:14.564Z,2.80
2023-08-01T01:02:16.910Z,3.13
2023-08-01T01:05:21.732Z,2.67
2023-08-01T01:08:25.449Z,2.50
2023-08-01T01:11:28.172Z,2.47
2023-08-01T01:14:30.446Z,2.83
2023-08-01T01:17:33.121Z,3.10
2023-08-01T01:20:39.567Z,2.85
2023-08-01T01:23:42.780Z,2.95
2023-08-01T01:26:46.079Z,3.00
2023-08-01T01:29:50.654Z,2.45
2023-08-01T01:32:53.547Z,3.03
2023-08-01T01:35:56.540Z,3.40
2023-08-01T01:38:59.473Z,2.78
2023-08-01T01:42:03.271Z,2.92
2023-08-01T01:45:06.534Z,2.80
2023-08-01T01:48:08.876Z,2.55
2023-08-01T01:51:12.294Z,2.80
2023-08-01T01:54:15.065Z,3.05
2023-08-01T01:57:17.292Z,2.80
2023-08-01T02:00:20.040Z,2.72
2023-08-01T02:03:22.093Z,3.08
2023-08-01T02:06:25.583Z,2.58
2023-08-01T02:09:28.405Z,3.10
2023-08-01T02:12:36.245Z,2.72
2023-08-01T02:15:38.372Z,3.10
2023-08-01T02:18:40.765Z,2.70
2023-08-01T02:21:42.826Z,3.28
2023-08-01T02:24:45.295Z,3.00
2023-08-01T02:27:47.322Z,3.08
2023-08-01T02:30:52.000Z,3.20
2023-08-01T02:33:54.172Z,2.90
2023-08-01T02:36:57.798Z,3.10
2023-08-01T02:39:59.832Z,3.47
2023-08-01T02:43:04.687Z,2.80
2023-08-01T02:46:06.886Z,3.72
2023-08-01T02:49:09.253Z,2.45
2023-08-01T02:52:12.375Z,2.80
2023-08-01T02:55:14.916Z,2.60
2023-08-01T02:58:18.000Z,2.97
2023-08-01T03:01:20.367Z,3.20
2023-08-01T03:04:29.279Z,2.80
2023-08-01T03:07:38.901Z,2.92
2023-08-01T03:10:40.965Z,3.30
2023-08-01T03:13:43.311Z,3.33
2023-08-01T03:16:45.534Z,3.03
2023-08-01T03:19:50.210Z,3.20
2023-08-01T03:22:52.333Z,3.15
2023-08-01T03:25:54.659Z,3.38
2023-08-01T03:28:57.459Z,3.53
2023-08-01T03:31:59.902Z,2.80
2023-08-01T03:35:02.049Z,3.53
2023-08-01T03:38:04.349Z,2.92
2023-08-01T03:41:06.648Z,3.20
2023-08-01T03:44:08.853Z,2.78
2023-08-01T03:47:10.991Z,3.38
2023-08-01T03:50:14.956Z,3.60
2023-08-01T03:53:17.000Z,3.25
2023-08-01T03:56:20.517Z,3.67
2023-08-01T03:59:22.835Z,3.63
2023-08-01T04:02:25.232Z,3.13
2023-08-01T04:05:27.705Z,4.03
2023-08-01T04:08:30.047Z,3.80
2023-08-01T04:11:32.127Z,4.05
2023-08-01T04:14:35.449Z,3.63
2023-08-01T04:17:37.653Z,4.00
2023-08-01T04:20:40.348Z,3.75
2023-08-01T04:23:43.028Z,3.67
2023-08-01T04:26:46.557Z,3.88
2023-08-01T04:29:49.466Z,3.88
2023-08-01T04:32:51.774Z,4.15
2023-08-01T04:35:53.883Z,4.00
2023-08-01T04:38:56.154Z,3.60
2023-08-01T04:41:58.226Z,3.78
2023-08-01T04:45:00.595Z,5.50
2023-08-01T04:48:03.346Z,4.65
2023-08-01T04:51:06.697Z,3.92
2023-08-01T04:54:08.763Z,4.10
2023-08-01T04:57:11.356Z,3.90
2023-08-01T05:00:13.904Z,3.80
2023-08-01T05:03:16.210Z,3.80
2023-08-01T05:06:18.333Z,3.75
2023-08-01T05:09:20.818Z,3.42
2023-08-01T05:12:22.953Z,3.83
2023-08-01T05:15:26.390Z,3.53
2023-08-01T05:18:28.717Z,3.78
2023-08-01T05:21:31.537Z,3.60
2023-08-01T05:24:34.470Z,3.83
2023-08-01T05:27:36.984Z,3.80
2023-08-01T05:30:39.158Z,3.65
2023-08-01T05:33:41.745Z,4.00
2023-08-01T05:36:43.760Z,3.58
2023-08-01T05:39:46.259Z,3.72
2023-08-01T05:42:48.250Z,3.70
2023-08-01T05:45:53.719Z,3.53
2023-08-01T05:48:56.053Z,4.05
2023-08-01T05:51:58.435Z,3.60
2023-08-01T05:55:00.380Z,3.90
2023-08-01T05:58:03.106Z,3.25
2023-08-01T06:01:06.408Z,3.88
2023-08-01T06:04:09.406Z,3.88
2023-08-01T06:07:11.488Z,3.95
2023-08-01T06:10:14.121Z,4.05
2023-08-01T06:13:16.355Z,4.22
2023-08-01T06:16:20.174Z,3.70
2023-08-01T06:19:22.359Z,3.85
2023-08-01T06:22:25.665Z,3.92
2023-08-01T06:25:27.711Z,4.15
2023-08-01T06:28:30.529Z,3.78
2023-08-01T06:31:32.553Z,3.78
2023-08-01T06:34:35.267Z,3.67
2023-08-01T06:37:37.557Z,4.05
2023-08-01T06:40:40.197Z,3.67
2023-08-01T06:43:42.734Z,3.90
2023-08-01T06:46:45.112Z,4.30
2023-08-01T06:49:47.403Z,4.40
2023-08-01T06:52:49.693Z,4.22
2023-08-01T06:55:54.377Z,4.18
2023-08-01T06:58:56.944Z,4.03
2023-08-01T07:01:59.663Z,4.07
2023-08-01T07:05:02.497Z,3.85
2023-08-01T07:08:05.146Z,3.90
2023-08-01T07:11:07.577Z,3.83
2023-08-01T07:14:09.708Z,4.05
2023-08-01T07:17:14.216Z,3.88
2023-08-01T07:20:16.359Z,3.83
2023-08-01T07:23:18.817Z,3.65
2023-08-01T07:26:20.874Z,3.50
2023-08-01T07:29:24.456Z,3.65
2023-08-01T07:32:26.450Z,3.85
2023-08-01T07:35:28.988Z,3.80
2023-08-01T07:38:32.991Z,3.65
2023-08-01T07:41:35.679Z,3.47
2023-08-01T07:44:37.747Z,3.67
2023-08-01T07:47:40.214Z,3.22
2023-08-01T07:50:42.460Z,3.35
2023-08-01T07:53:46.183Z,3.50
2023-08-01T07:56:49.900Z,3.85
2023-08-01T07:59:52.506Z,3.17
2023-08-01T08:02:55.306Z,2.97
2023-08-01T08:05:58.358Z,3.67
2023-08-01T08:09:00.660Z,3.70
2023-08-01T08:12:03.068Z,3.80
2023-08-01T08:15:05.493Z,3.60
2023-08-01T08:18:07.847Z,3.00
2023-08-01T08:21:09.961Z,3.15
2023-08-01T08:24:12.322Z,4.00
2023-08-01T08:27:15.070Z,3.70
2023-08-01T08:30:18.890Z,3.00
2023-08-01T08:33:23.152Z,2.88
2023-08-01T08:36:25.564Z,3.25
2023-08-01T08:39:27.740Z,2.58
2023-08-01T08:42:30.308Z,3.03
2023-08-01T08:45:36.791Z,3.05
2023-08-01T08:48:42.160Z,3.03
2023-08-01T08:51:46.471Z,2.53
2023-08-01T08:54:49.708Z,3.50
2023-08-01T08:57:53.644Z,2.90
2023-08-01T09:00:56.381Z,2.88
2023-08-01T09:04:01.375Z,2.72
2023-08-01T09:07:08.759Z,3.28
2023-08-01T09:10:10.997Z,2.67
2023-08-01T09:13:13.472Z,3.10
2023-08-01T09:16:16.868Z,2.97
2023-08-01T09:19:21.126Z,2.80
2023-08-01T09:22:23.560Z,2.90
2023-08-01T09:25:35.102Z,3.08
2023-08-01T09:28:37.243Z,3.30
2023-08-01T09:31:41.908Z,3.08
2023-08-01T09:34:46.603Z,3.38
2023-08-01T09:37:49.075Z,3.05
2023-08-01T09:40:51.616Z,3.22
2023-08-01T09:43:54.251Z,3.10
2023-08-01T09:47:05.718Z,3.45
2023-08-01T09:50:10.067Z,3.20
2023-08-01T09:53:12.075Z,2.78
2023-08-01T09:56:17.810Z,3.20
2023-08-01T09:59:24.940Z,3.30
2023-08-01T10:02:30.958Z,2.90
2023-08-01T10:05:36.807Z,3.05
2023-08-01T10:08:40.855Z,3.20
2023-08-01T10:11:43.673Z,3.20
2023-08-01T10:14:46.306Z,3.47
2023-08-01T10:17:48.293Z,2.97
2023-08-01T10:20:51.473Z,4.30
2023-08-01T10:23:54.553Z,4.15
2023-08-01T10:26:56.943Z,4.32
2023-08-01T10:30:00.540Z,4.00
2023-08-01T10:33:03.602Z,4.90
2023-08-01T10:36:15.878Z,4.68
2023-08-01T10:39:23.964Z,4.60
2023-08-01T10:42:26.480Z,4.97
2023-08-01T10:45:31.010Z,4.72
2023-08-01T10:48:33.252Z,4.53
2023-08-01T10:51:38.838Z,4.75
2023-08-01T10:54:42.097Z,4.95
2023-08-01T10:57:51.096Z,4.82
2023-08-01T11:00:59.686Z,4.90
2023-08-01T11:04:02.290Z,4.95
2023-08-01T11:07:05.954Z,4.68
2023-08-01T11:10:09.306Z,4.63
2023-08-01T11:13:12.815Z,5.65
2023-08-01T11:16:16.731Z,5.78
2023-08-01T11:19:27.295Z,6.10
2023-08-01T11:22:30.151Z,5.30
2023-08-01T11:25:39.041Z,4.88
2023-08-01T11:28:41.333Z,5.50
2023-08-01T11:31:56.667Z,4.97
2023-08-01T11:34:59.092Z,5.18
2023-08-01T11:38:01.188Z,5.05
2023-08-01T11:41:05.620Z,5.38
2023-08-01T11:44:07.803Z,4.88
2023-08-01T11:47:18.605Z,5.18
2023-08-01T11:50:26.147Z,6.35
2023-08-01T11:53:29.521Z,7.60
2023-08-01T11:56:34.738Z,3.08
2023-08-01T11:59:50.936Z,2.10
2023-08-01T12:02:53.301Z,1.88
2023-08-01T12:06:05.310Z,1.55
2023-08-01T12:09:11.227Z,1.67
2023-08-01T12:12:13.721Z,1.50
2023-08-01T12:15:16.565Z,1.85
2023-08-01T12:21:33.816Z,1.42
2023-08-01T12:24:38.674Z,1.73
2023-08-01T12:27:40.804Z,1.58
2023-08-01T12:30:45.826Z,1.63
2023-08-01T12:33:48.823Z,1.40
2023-08-01T12:36:51.200Z,1.27
2023-08-01T12:39:54.781Z,1.70
2023-08-01T12:42:57.565Z,1.40
2023-08-01T12:46:02.915Z,1.38
2023-08-01T12:49:08.586Z,0.95
2023-08-01T12:52:10.537Z,1.90
2023-08-01T12:55:12.953Z,1.58
2023-08-01T12:58:15.801Z,1.15
2023-08-01T13:01:19.559Z,1.50
2023-08-01T13:04:21.696Z,1.40
2023-08-01T13:07:24.082Z,1.65
2023-08-01T13:10:26.057Z,1.85
2023-08-01T13:13:29.818Z,1.73
2023-08-01T13:16:34.666Z,1.88
2023-08-01T13:19:43.943Z,1.90
2023-08-01T13:22:50.984Z,1.55
2023-08-01T13:25:53.477Z,1.83
2023-08-01T13:28:55.887Z,1.88
2023-08-01T13:31:58.236Z,1.65
2023-08-01T13:35:00.559Z,1.88
2023-08-01T13:38:04.355Z,1.38
2023-08-01T13:41:07.686Z,2.00
2023-08-01T13:44:17.836Z,1.90
2023-08-01T13:47:19.926Z,1.90
2023-08-01T13:50:22.797Z,2.13
2023-08-01T13:53:25.034Z,1.92
2023-08-01T13:56:28.914Z,1.80
2023-08-01T13:59:31.929Z,2.05
2023-08-01T14:02:34.918Z,2.33
2023-08-01T14:05:37.006Z,2.25
2023-08-01T14:08:45.939Z,2.10
2023-08-01T14:11:49.892Z,1.80
2023-08-01T14:14:55.774Z,1.80
2023-08-01T14:18:03.751Z,1.85
2023-08-01T14:21:08.799Z,1.98
2023-08-01T14:24:10.788Z,2.00
2023-08-01T14:27:14.212Z,1.83
2023-08-01T14:30:16.221Z,1.80
2023-08-01T14:33:18.555Z,1.67
2023-08-01T14:36:20.682Z,1.90
2023-08-01T14:39:23.392Z,2.03
2023-08-01T14:42:25.566Z,2.00
2023-08-01T14:45:27.855Z,1.98
2023-08-01T14:48:30.306Z,1.60
2023-08-01T14:51:32.553Z,1.40
2023-08-01T14:54:41.070Z,1.30
2023-08-01T14:57:44.479Z,1.27
2023-08-01T15:00:47.439Z,1.00
2023-08-01T15:03:53.987Z,1.00
2023-08-01T15:06:56.314Z,0.80
2023-08-01T15:09:59.515Z,0.90
2023-08-01T15:13:01.530Z,0.65
2023-08-01T15:16:03.998Z,0.63
2023-08-01T15:19:07.493Z,0.77
2023-08-01T15:22:09.939Z,0.70
2023-08-01T15:25:11.883Z,0.60
2023-08-01T15:28:14.138Z,0.80
2023-08-01T15:31:16.130Z,0.65
2023-08-01T15:34:21.438Z,0.60
2023-08-01T15:37:23.534Z,0.47
2023-08-01T15:40:27.160Z,0.63
2023-08-01T15:43:30.935Z,0.60
2023-08-01T15:46:34.685Z,0.63
2023-08-01T15:49:36.845Z,0.60
2023-08-01T15:52:39.178Z,0.80
2023-08-01T15:55:41.237Z,0.70
2023-08-01T15:58:43.625Z,0.93
2023-08-01T16:01:46.406Z,0.80
2023-08-01T16:04:48.735Z,0.80
2023-08-01T16:07:51.777Z,0.80
2023-08-01T16:10:54.163Z,0.90
2023-08-01T16:14:00.256Z,1.00
2023-08-01T16:17:04.125Z,0.93
2023-08-01T16:20:06.924Z,1.10
2023-08-01T16:23:09.355Z,1.20
2023-08-01T16:26:11.465Z,1.00
2023-08-01T16:29:13.757Z,1.20
2023-08-01T16:32:16.158Z,1.10
2023-08-01T16:35:18.980Z,1.42
2023-08-01T16:38:21.705Z,1.10
2023-08-01T16:41:24.151Z,1.02
2023-08-01T16:44:26.288Z,1.05
2023-08-01T16:47:41.613Z,1.30
2023-08-01T16:50:44.640Z,1.00
2023-08-01T16:53:47.630Z,1.90
2023-08-01T16:56:49.809Z,2.00
2023-08-01T16:59:52.161Z,1.83
2023-08-01T17:02:54.402Z,1.25
2023-08-01T17:05:57.881Z,1.33
2023-08-01T17:09:00.242Z,1.00
2023-08-01T17:12:02.665Z,1.50
2023-08-01T17:15:06.177Z,1.55
2023-08-01T17:18:08.781Z,1.00
2023-08-01T17:21:11.014Z,1.10
2023-08-01T17:24:13.714Z,1.10
2023-08-01T17:27:15.810Z,1.10
2023-08-01T17:30:18.951Z,1.17
2023-08-01T17:33:22.132Z,1.20
2023-08-01T17:36:24.493Z,1.00
2023-08-01T17:39:28.816Z,1.00
2023-08-01T17:42:31.314Z,1.20
2023-08-01T17:45:33.312Z,1.17
2023-08-01T17:48:38.446Z,1.45
2023-08-01T17:51:41.896Z,1.75
2023-08-01T17:54:44.340Z,1.23
2023-08-01T17:57:47.417Z,1.55
2023-08-01T18:00:52.114Z,1.50
2023-08-01T18:03:54.193Z,1.75
2023-08-01T18:06:57.495Z,1.30
2023-08-01T18:09:59.791Z,1.70
2023-08-01T18:13:02.218Z,1.20
2023-08-01T18:16:07.458Z,1.35
2023-08-01T18:19:10.467Z,1.48
2023-08-01T18:22:13.089Z,5.00
2023-08-01T18:25:15.581Z,2.25
2023-08-01T18:28:18.998Z,6.65
2023-08-01T18:31:22.808Z,1.60
2023-08-01T18:34:25.385Z,1.35
2023-08-01T18:37:30.580Z,1.60
2023-08-01T18:40:33.173Z,1.40
2023-08-01T18:43:35.972Z,1.02
2023-08-01T18:46:42.097Z,1.25
2023-08-01T18:49:50.644Z,1.40
2023-08-01T18:52:52.757Z,1.48
2023-08-01T18:55:55.049Z,1.30
2023-08-01T18:58:57.566Z,1.20
2023-08-01T19:02:00.243Z,1.48
2023-08-01T19:05:11.280Z,2.72
2023-08-01T19:08:13.830Z,1.40
2023-08-01T19:11:16.203Z,1.33
2023-08-01T19:14:18.886Z,1.00
2023-08-01T19:17:21.216Z,1.65
2023-08-01T19:20:23.515Z,1.33
2023-08-01T19:23:25.925Z,1.20
2023-08-01T19:26:28.373Z,1.40
2023-08-01T19:29:31.505Z,1.40
2023-08-01T19:32:34.019Z,2.00
2023-08-01T19:35:44.468Z,2.20
2023-08-01T19:38:47.247Z,2.17
2023-08-01T19:41:51.002Z,2.35
2023-08-01T19:44:55.833Z,3.25
2023-08-01T19:47:57.937Z,8.75
2023-08-01T19:51:01.875Z,7.00
2023-08-01T19:54:05.006Z,6.65
2023-08-01T19:57:07.603Z,4.75
2023-08-01T20:00:13.300Z,3.58
2023-08-01T20:03:16.725Z,7.00
2023-08-01T20:06:19.036Z,7.78
2023-08-01T20:09:32.908Z,5.00
2023-08-01T20:12:35.670Z,3.10
2023-08-01T20:15:38.293Z,2.97
2023-08-01T20:18:45.110Z,2.72
2023-08-01T20:21:47.549Z,2.20
2023-08-01T20:24:49.632Z,1.90
2023-08-01T20:27:55.419Z,2.38
2023-08-01T20:30:58.956Z,1.65
2023-08-01T20:34:13.158Z,1.75
2023-08-01T20:37:16.874Z,2.10
2023-08-01T20:40:20.200Z,1.63
2023-08-01T20:43:27.442Z,1.65
2023-08-01T20:46:32.349Z,3.28
2023-08-01T20:49:38.474Z,1.90
2023-08-01T20:52:43.116Z,1.80
2023-08-01T20:55:45.608Z,1.80
2023-08-01T20:58:47.961Z,1.92
2023-08-01T21:02:01.945Z,1.75
2023-08-01T21:05:07.728Z,1.65
2023-08-01T21:08:10.462Z,1.77
2023-08-01T21:11:14.194Z,1.52
2023-08-01T21:14:17.858Z,2.00
2023-08-01T21:17:23.602Z,1.98
2023-08-01T21:20:26.010Z,2.03
2023-08-01T21:23:33.372Z,2.03
2023-08-01T21:26:36.452Z,1.58
2023-08-01T21:29:39.782Z,1.88
2023-08-01T21:32:42.522Z,1.70
2023-08-01T21:35:46.373Z,2.13
2023-08-01T21:38:49.863Z,2.28
2023-08-01T21:41:52.459Z,1.90
2023-08-01T21:44:55.942Z,2.00
2023-08-01T21:47:59.328Z,1.95
2023-08-01T21:51:05.004Z,1.90
2023-08-01T21:54:11.842Z,1.77
2023-08-01T21:57:13.913Z,2.05
2023-08-01T22:00:16.548Z,1.70
2023-08-01T22:03:19.052Z,2.08
2023-08-01T22:06:22.503Z,2.25
2023-08-01T22:09:24.715Z,1.80
2023-08-01T22:12:27.480Z,1.98
2023-08-01T22:15:30.074Z,2.10
2023-08-01T22:18:32.844Z,2.10
2023-08-01T22:21:36.307Z,2.10
2023-08-01T22:24:39.575Z,2.05
2023-08-01T22:27:41.711Z,2.08
2023-08-01T22:30:44.087Z,2.30
2023-08-01T22:33:46.083Z,2.78
2023-08-01T22:36:48.498Z,3.72
2023-08-01T22:39:50.480Z,4.10
2023-08-01T22:42:53.101Z,3.70
2023-08-01T22:46:00.507Z,2.75
2023-08-01T22:49:03.143Z,3.50
2023-08-01T22:52:06.978Z,3.08
2023-08-01T22:55:12.069Z,2.85
2023-08-01T22:58:15.271Z,3.20
2023-08-01T23:01:19.011Z,3.15
2023-08-01T23:04:21.387Z,3.20
2023-08-01T23:07:23.870Z,3.22
2023-08-01T23:10:38.451Z,2.90
2023-08-01T23:13:48.525Z,3.20
2023-08-01T23:16:50.624Z,3.78
2023-08-01T23:19:53.458Z,3.38
2023-08-01T23:22:55.495Z,3.60
2023-08-01T23:26:10.454Z,3.50
2023-08-01T23:29:12.556Z,3.58
2023-08-01T23:32:15.280Z,3.88
2023-08-01T23:35:17.557Z,3.75
2023-08-01T23:38:21.773Z,4.00
2023-08-01T23:41:25.052Z,3.25
2023-08-01T23:44:29.452Z,3.83
2023-08-01T23:47:33.557Z,3.80
2023-08-01T23:50:39.232Z,3.25
2023-08-01T23:53:41.268Z,3.63
2023-08-01T23:56:44.135Z,3.25
2023-08-01T23:59:47.166Z,3.90
